Time;durP1;ratioP1;P1;durP2;ratioP2;P2;SDS_P1;SDS_P2;PMS_P1;PMS_P2;Temp;Humidity;BMP_temperature;BMP_pressure;BME280_temperature;BME280_humidity;BME280_pressure;Samples;Min_cycle;Max_cycle;Signal;HPM_P1;HPM_P2
2022/09/04 00:05:05;;;;;;;10.32;9.43;;;;;;;;;;10116011;29;20440;-80
2022/09/04 00:10:16;;;;;;;10.30;9.23;;;;;;;;;;10115833;29;20455;-81
2022/09/04 00:15:23;;;;;;;10.38;8.80;;;;;;;;;;10115627;29;20446;-80
2022/09/04 00:20:34;;;;;;;9.27;8.30;;;;;;;;;;10113535;29;20433;-80
2022/09/04 00:25:46;;;;;;;9.40;8.40;;;;;;;;;;10112211;29;20447;-80
2022/09/04 00:30:56;;;;;;;9.00;8.20;;;;;;;;;;10116242;29;20441;-79
2022/09/04 00:36:03;;;;;;;9.65;8.75;;;;;;;;;;10115266;29;20409;-80
2022/09/04 00:41:14;;;;;;;9.38;8.48;;;;;;;;;;10090303;29;20727;-80
2022/09/04 00:46:42;;;;;;;10.00;9.00;;;;;;;;;;10090687;29;20435;-80
2022/09/04 00:51:54;;;;;;;10.43;9.15;;;;;;;;;;10115697;29;20481;-80
2022/09/04 00:57:24;;;;;;;9.00;8.10;;;;;;;;;;10114964;29;20894;-80
2022/09/04 01:02:41;;;;;;;9.07;8.10;;;;;;;;;;10115734;29;20496;-80
2022/09/04 01:07:49;;;;;;;8.80;8.00;;;;;;;;;;10115335;29;20413;-80
2022/09/04 01:12:59;;;;;;;8.68;7.88;;;;;;;;;;10114346;29;20473;-78
2022/09/04 01:18:09;;;;;;;10.43;8.48;;;;;;;;;;10114334;29;20412;-79
2022/09/04 01:23:29;;;;;;;9.45;8.55;;;;;;;;;;10114826;29;20433;-79
2022/09/04 01:28:40;;;;;;;9.73;8.63;;;;;;;;;;10114950;29;20508;-79
2022/09/04 01:33:53;;;;;;;9.63;8.73;;;;;;;;;;10084448;29;20515;-79
2022/09/04 01:38:58;;;;;;;8.93;8.13;;;;;;;;;;10109050;29;20907;-80
2022/09/04 01:44:04;;;;;;;8.88;8.05;;;;;;;;;;10084562;29;20589;-79
2022/09/04 01:49:13;;;;;;;9.57;8.48;;;;;;;;;;10103984;29;20413;-79
2022/09/04 01:54:31;;;;;;;8.95;8.05;;;;;;;;;;10109443;29;20499;-79
2022/09/04 01:59:43;;;;;;;9.70;8.15;;;;;;;;;;10120999;29;20409;-79
2022/09/04 02:04:54;;;;;;;9.50;8.60;;;;;;;;;;10120077;29;20444;-79
2022/09/04 02:10:06;;;;;;;8.88;7.97;;;;;;;;;;10119453;29;20416;-79
2022/09/04 02:15:17;;;;;;;8.90;7.97;;;;;;;;;;10118835;29;20424;-79
2022/09/04 02:20:24;;;;;;;9.35;8.35;;;;;;;;;;10119444;29;20435;-79
2022/09/04 02:25:30;;;;;;;10.40;8.10;;;;;;;;;;10116860;29;20502;-79
2022/09/04 02:30:40;;;;;;;8.43;7.53;;;;;;;;;;10094820;29;20433;-79
2022/09/04 02:35:48;;;;;;;9.00;8.10;;;;;;;;;;10094511;29;20418;-78
2022/09/04 02:40:52;;;;;;;8.68;7.88;;;;;;;;;;10087479;29;20504;-79
2022/09/04 02:46:04;;;;;;;8.63;7.83;;;;;;;;;;10119274;29;20437;-79
2022/09/04 02:51:19;;;;;;;8.73;7.82;;;;;;;;;;10119631;29;20413;-79
2022/09/04 02:56:31;;;;;;;8.70;7.90;;;;;;;;;;10118254;29;20440;-79
2022/09/04 03:01:39;;;;;;;8.93;8.03;;;;;;;;;;10117234;29;20413;-79
2022/09/04 03:06:52;;;;;;;8.50;7.70;;;;;;;;;;10115850;29;21001;-80
2022/09/04 03:11:59;;;;;;;11.30;7.97;;;;;;;;;;10115164;29;20409;-80
2022/09/04 03:17:11;;;;;;;8.85;7.70;;;;;;;;;;10113427;29;20413;-80
2022/09/04 03:22:18;;;;;;;8.60;7.72;;;;;;;;;;10111777;29;20433;-80
2022/09/04 03:27:20;;;;;;;8.00;7.20;;;;;;;;;;10102455;29;20446;-79
2022/09/04 03:32:28;;;;;;;8.35;7.47;;;;;;;;;;10105780;29;20500;-79
2022/09/04 03:37:52;;;;;;;10.88;7.47;;;;;;;;;;10089093;29;20573;-80
2022/09/04 03:43:16;;;;;;;8.77;7.97;;;;;;;;;;10080130;29;20434;-79
2022/09/04 03:48:29;;;;;;;8.13;7.32;;;;;;;;;;10080792;29;20777;-80
2022/09/04 03:53:40;;;;;;;8.10;7.30;;;;;;;;;;10079042;29;20547;-80
2022/09/04 03:58:54;;;;;;;8.50;7.60;;;;;;;;;;10085911;29;20840;-79
2022/09/04 04:04:16;;;;;;;9.37;7.97;;;;;;;;;;10105312;29;20429;-79
2022/09/04 04:09:36;;;;;;;9.88;8.88;;;;;;;;;;10115928;29;20521;-79
2022/09/04 04:14:54;;;;;;;9.73;8.73;;;;;;;;;;10115002;29;20550;-79
2022/09/04 04:20:10;;;;;;;10.65;8.50;;;;;;;;;;10114816;29;20500;-78
2022/09/04 04:25:29;;;;;;;8.63;7.68;;;;;;;;;;10103577;29;20467;-79
2022/09/04 04:30:43;;;;;;;11.52;8.10;;;;;;;;;;10104143;29;20417;-79
2022/09/04 04:35:54;;;;;;;9.88;7.82;;;;;;;;;;10115919;29;20424;-79
2022/09/04 04:41:14;;;;;;;9.20;8.30;;;;;;;;;;10115589;29;20420;-79
2022/09/04 04:46:27;;;;;;;9.50;8.40;;;;;;;;;;10113807;29;20437;-79
2022/09/04 04:51:47;;;;;;;10.05;9.00;;;;;;;;;;10111894;29;20500;-79
2022/09/04 04:56:57;;;;;;;10.70;8.30;;;;;;;;;;10112426;29;20416;-79
2022/09/04 05:02:06;;;;;;;9.23;8.35;;;;;;;;;;10112680;29;20448;-78
2022/09/04 05:07:17;;;;;;;9.10;8.20;;;;;;;;;;10118999;29;20425;-77
2022/09/04 05:12:28;;;;;;;9.07;8.27;;;;;;;;;;10119557;29;20830;-80
2022/09/04 05:17:39;;;;;;;9.30;8.40;;;;;;;;;;10118764;29;20435;-80
2022/09/04 05:22:47;;;;;;;9.52;8.52;;;;;;;;;;10118262;29;20778;-80
2022/09/04 05:27:58;;;;;;;9.00;8.10;;;;;;;;;;10118130;29;20520;-80
2022/09/04 05:33:08;;;;;;;7.97;7.18;;;;;;;;;;10090549;29;20930;-80
2022/09/04 05:38:18;;;;;;;7.35;6.75;;;;;;;;;;10085182;29;20494;-80
2022/09/04 05:43:30;;;;;;;8.10;6.78;;;;;;;;;;10084463;29;20773;-79
2022/09/04 05:48:42;;;;;;;7.40;6.70;;;;;;;;;;10109372;29;20517;-80
2022/09/04 05:54:10;;;;;;;7.27;6.67;;;;;;;;;;10102421;29;20425;-81
2022/09/04 05:59:35;;;;;;;7.22;6.57;;;;;;;;;;10099141;29;20503;-80
2022/09/04 06:05:05;;;;;;;7.23;6.40;;;;;;;;;;10086233;29;20575;-79
2022/09/04 06:10:17;;;;;;;7.53;6.83;;;;;;;;;;10101922;29;20446;-80
2022/09/04 06:15:28;;;;;;;7.45;6.72;;;;;;;;;;10117650;29;20452;-80
2022/09/04 06:20:58;;;;;;;7.13;6.35;;;;;;;;;;10121062;29;20435;-80
2022/09/04 06:26:16;;;;;;;7.22;6.10;;;;;;;;;;10118567;29;20516;-80
2022/09/04 06:31:46;;;;;;;6.27;5.70;;;;;;;;;;10118899;29;21006;-80
2022/09/04 06:37:02;;;;;;;6.22;5.65;;;;;;;;;;10120559;29;20852;-80
2022/09/04 06:42:16;;;;;;;5.75;4.80;;;;;;;;;;10120192;29;20517;-81
2022/09/04 06:47:28;;;;;;;5.20;4.70;;;;;;;;;;10119789;29;20441;-80
2022/09/04 06:52:38;;;;;;;5.35;4.85;;;;;;;;;;10118875;29;20500;-80
2022/09/04 06:58:02;;;;;;;5.93;4.80;;;;;;;;;;10117745;29;20500;-80
2022/09/04 07:03:34;;;;;;;6.93;4.57;;;;;;;;;;10095541;29;20433;-79
2022/09/04 07:08:51;;;;;;;5.10;3.80;;;;;;;;;;10084825;29;20413;-79
2022/09/04 07:14:16;;;;;;;3.80;3.40;;;;;;;;;;10106779;29;20982;-79
2022/09/04 07:19:40;;;;;;;3.50;3.22;;;;;;;;;;10105373;29;20497;-77
2022/09/04 07:24:56;;;;;;;3.78;3.20;;;;;;;;;;10114765;29;20487;-78
2022/09/04 07:30:03;;;;;;;3.40;3.10;;;;;;;;;;10105552;29;20852;-80
2022/09/04 07:35:13;;;;;;;3.60;3.30;;;;;;;;;;10080346;29;20423;-79
2022/09/04 07:40:17;;;;;;;3.08;2.88;;;;;;;;;;10081279;29;20450;-79
2022/09/04 07:45:29;;;;;;;3.00;2.70;;;;;;;;;;10080496;29;20537;-79
2022/09/04 07:50:38;;;;;;;2.83;2.63;;;;;;;;;;10098472;29;20417;-79
2022/09/04 07:55:45;;;;;;;3.30;2.90;;;;;;;;;;10117745;29;20508;-79
2022/09/04 08:01:03;;;;;;;2.90;2.60;;;;;;;;;;10116923;29;20413;-79
2022/09/04 08:06:14;;;;;;;3.00;2.80;;;;;;;;;;10115891;29;20436;-80
2022/09/04 08:11:33;;;;;;;3.78;3.20;;;;;;;;;;10116128;29;20413;-80
2022/09/04 08:16:44;;;;;;;3.42;3.13;;;;;;;;;;10116071;29;20480;-79
2022/09/04 08:21:47;;;;;;;3.45;3.10;;;;;;;;;;10115525;29;21254;-78
2022/09/04 08:27:02;;;;;;;3.70;3.10;;;;;;;;;;10114315;29;20805;-80
2022/09/04 08:32:22;;;;;;;3.20;2.90;;;;;;;;;;10115863;29;20894;-79
2022/09/04 08:37:27;;;;;;;4.10;2.80;;;;;;;;;;10114924;29;20427;-81
2022/09/04 08:43:16;;;;;;;2.88;2.67;;;;;;;;;;10115130;29;20417;-80
2022/09/04 08:48:47;;;;;;;2.70;2.50;;;;;;;;;;10057240;29;20477;-80
2022/09/04 08:54:17;;;;;;;2.22;1.95;;;;;;;;;;10113886;29;20522;-80
2022/09/04 08:59:46;;;;;;;2.30;2.10;;;;;;;;;;10112823;29;20977;-81
2022/09/04 09:05:17;;;;;;;2.43;2.20;;;;;;;;;;10103478;29;20805;-79
2022/09/04 09:10:36;;;;;;;2.20;2.00;;;;;;;;;;10111033;29;20421;-79
2022/09/04 09:16:14;;;;;;;3.73;2.17;;;;;;;;;;10108615;29;20419;-80
2022/09/04 09:21:33;;;;;;;2.30;2.10;;;;;;;;;;10102544;29;20416;-79
2022/09/04 09:26:44;;;;;;;2.20;2.10;;;;;;;;;;10107591;29;20520;-79
2022/09/04 09:32:35;;;;;;;2.33;2.10;;;;;;;;;;10102280;29;20912;-79
2022/09/04 09:38:01;;;;;;;3.50;2.40;;;;;;;;;;10107121;29;20909;-80
2022/09/04 09:43:40;;;;;;;3.92;2.00;;;;;;;;;;10114443;29;20425;-79
2022/09/04 09:49:27;;;;;;;2.40;2.20;;;;;;;;;;10113875;29;20494;-79
2022/09/04 09:55:02;;;;;;;2.40;2.20;;;;;;;;;;10105010;29;20504;-80
2022/09/04 10:00:11;;;;;;;3.30;2.33;;;;;;;;;;10119937;29;20522;-80
2022/09/04 10:05:43;;;;;;;3.15;2.53;;;;;;;;;;10119136;29;20433;-80
2022/09/04 10:11:09;;;;;;;3.40;2.40;;;;;;;;;;10078003;29;20502;-79
2022/09/04 10:16:49;;;;;;;3.60;2.53;;;;;;;;;;10110460;29;20405;-80
2022/09/04 10:22:28;;;;;;;2.55;2.35;;;;;;;;;;10118722;29;20417;-80
2022/09/04 10:28:10;;;;;;;3.35;2.50;;;;;;;;;;10117385;29;20440;-80
2022/09/04 10:33:32;;;;;;;2.53;2.25;;;;;;;;;;10073804;29;20773;-80
2022/09/04 10:40:34;;;;;;;3.40;2.50;;;;;;;;;;10120549;29;20492;-79
2022/09/04 10:44:17;;;;;;;2.75;2.55;;;;;;;;;;10119319;29;20436;-80
2022/09/04 10:49:50;;;;;;;3.15;2.60;;;;;;;;;;10119295;29;20500;-80
2022/09/04 10:55:14;;;;;;;3.50;2.80;;;;;;;;;;10107740;29;20519;-80
2022/09/04 11:00:19;;;;;;;4.20;2.40;;;;;;;;;;10118499;29;20714;-80
2022/09/04 11:05:40;;;;;;;2.65;2.45;;;;;;;;;;10116059;29;20629;-79
2022/09/04 11:11:03;;;;;;;2.70;2.50;;;;;;;;;;10116175;29;20421;-80
2022/09/04 11:16:25;;;;;;;2.60;2.40;;;;;;;;;;10106524;29;20505;-79
2022/09/04 11:21:59;;;;;;;2.80;2.60;;;;;;;;;;10115523;29;20417;-79
2022/09/04 11:27:54;;;;;;;3.22;2.47;;;;;;;;;;10113313;29;20437;-80
2022/09/04 11:33:54;;;;;;;3.00;2.70;;;;;;;;;;10037178;29;20484;-80
2022/09/04 11:39:24;;;;;;;2.65;2.45;;;;;;;;;;10113278;29;20428;-80
2022/09/04 11:44:50;;;;;;;3.53;2.60;;;;;;;;;;10082636;29;20442;-79
2022/09/04 11:50:09;;;;;;;4.28;2.53;;;;;;;;;;10115254;29;20427;-80
2022/09/04 11:55:34;;;;;;;3.58;2.60;;;;;;;;;;10115231;29;20750;-80
2022/09/04 12:00:44;;;;;;;2.88;2.65;;;;;;;;;;10115566;29;20409;-80
2022/09/04 12:06:00;;;;;;;2.83;2.50;;;;;;;;;;10113133;29;20440;-79
2022/09/04 12:11:20;;;;;;;2.80;2.50;;;;;;;;;;10111886;29;20423;-79
2022/09/04 12:16:48;;;;;;;3.08;2.47;;;;;;;;;;10111317;29;20484;-81
2022/09/04 12:22:30;;;;;;;2.50;2.03;;;;;;;;;;10084409;29;20908;-80
2022/09/04 12:27:58;;;;;;;2.50;2.30;;;;;;;;;;10053121;29;20940;-80
2022/09/04 12:33:35;;;;;;;2.65;2.33;;;;;;;;;;10081359;29;20435;-80
2022/09/04 12:39:19;;;;;;;2.43;2.23;;;;;;;;;;10097111;29;20417;-79
2022/09/04 12:44:32;;;;;;;3.00;2.50;;;;;;;;;;10114069;29;20440;-80
2022/09/04 12:49:48;;;;;;;2.97;2.60;;;;;;;;;;10113591;29;20417;-80
2022/09/04 12:55:03;;;;;;;2.80;2.40;;;;;;;;;;10112659;29;20508;-80
2022/09/04 13:00:09;;;;;;;4.85;2.80;;;;;;;;;;10113278;29;20421;-80
2022/09/04 13:05:38;;;;;;;3.30;2.50;;;;;;;;;;10112636;29;20437;-80
2022/09/04 13:10:55;;;;;;;2.77;2.27;;;;;;;;;;10108524;29;20432;-80
2022/09/04 13:16:03;;;;;;;2.83;2.35;;;;;;;;;;10110851;29;20415;-80
2022/09/04 13:21:17;;;;;;;2.47;2.28;;;;;;;;;;10110540;29;20722;-80
2022/09/04 13:26:35;;;;;;;2.65;2.20;;;;;;;;;;10112457;29;20543;-80
2022/09/04 13:32:09;;;;;;;2.60;2.40;;;;;;;;;;10099177;29;20888;-80
2022/09/04 13:37:20;;;;;;;2.80;2.60;;;;;;;;;;10111908;29;20504;-80
2022/09/04 13:42:48;;;;;;;2.93;2.20;;;;;;;;;;10122622;29;20421;-80
2022/09/04 13:47:54;;;;;;;2.45;2.20;;;;;;;;;;10119156;29;20433;-80
2022/09/04 13:52:59;;;;;;;2.80;2.28;;;;;;;;;;10121598;29;20457;-80
2022/09/04 13:58:09;;;;;;;2.28;2.08;;;;;;;;;;10110562;29;20419;-80
2022/09/04 14:03:20;;;;;;;3.43;2.20;;;;;;;;;;10121087;29;20436;-80
2022/09/04 14:08:23;;;;;;;2.40;2.20;;;;;;;;;;10120622;29;21013;-80
2022/09/04 14:13:40;;;;;;;3.13;2.30;;;;;;;;;;10109008;29;20725;-80
2022/09/04 14:18:55;;;;;;;2.60;2.20;;;;;;;;;;10120197;29;20425;-80
2022/09/04 14:24:06;;;;;;;2.90;2.30;;;;;;;;;;10109214;29;20415;-80
2022/09/04 14:29:20;;;;;;;2.50;2.30;;;;;;;;;;10118891;29;20946;-79
2022/09/04 14:34:35;;;;;;;3.10;2.20;;;;;;;;;;10120519;29;20910;-80
2022/09/04 14:39:42;;;;;;;3.70;2.10;;;;;;;;;;10120251;29;20484;-79
2022/09/04 14:45:01;;;;;;;2.20;2.05;;;;;;;;;;10117581;29;20781;-80
2022/09/04 14:50:08;;;;;;;3.95;2.65;;;;;;;;;;10105434;29;20426;-81
2022/09/04 14:55:15;;;;;;;2.45;2.25;;;;;;;;;;10115802;29;20496;-80
2022/09/04 15:00:20;;;;;;;2.83;2.20;;;;;;;;;;10114598;29;20421;-80
2022/09/04 15:05:26;;;;;;;3.03;2.30;;;;;;;;;;10114281;29;20437;-80
2022/09/04 15:10:34;;;;;;;2.50;2.30;;;;;;;;;;10115942;29;20413;-80
2022/09/04 15:15:41;;;;;;;2.47;2.28;;;;;;;;;;10115030;29;20513;-80
2022/09/04 15:20:53;;;;;;;2.90;2.50;;;;;;;;;;10113275;29;20510;-79
2022/09/04 15:26:03;;;;;;;2.65;2.45;;;;;;;;;;10114836;29;20437;-80
2022/09/04 15:31:15;;;;;;;2.80;2.20;;;;;;;;;;10098507;29;20415;-80
2022/09/04 15:36:22;;;;;;;2.50;2.30;;;;;;;;;;10088653;29;20421;-80
2022/09/04 15:41:36;;;;;;;2.42;2.22;;;;;;;;;;10117068;29;20515;-80
2022/09/04 15:46:48;;;;;;;2.33;2.23;;;;;;;;;;10053342;29;1852659;-79
2022/09/04 15:51:55;;;;;;;3.22;2.72;;;;;;;;;;10116656;29;20496;-79
2022/09/04 15:57:07;;;;;;;2.30;2.20;;;;;;;;;;10115960;29;20504;-79
2022/09/04 16:02:23;;;;;;;2.70;2.50;;;;;;;;;;10103896;29;20504;-79
2022/09/04 16:07:36;;;;;;;2.90;2.40;;;;;;;;;;10115941;29;20443;-81
2022/09/04 16:12:48;;;;;;;3.28;2.53;;;;;;;;;;10114423;29;20853;-81
2022/09/04 16:17:53;;;;;;;2.58;2.38;;;;;;;;;;10114303;29;20959;-81
2022/09/04 16:22:59;;;;;;;2.90;2.70;;;;;;;;;;10112898;29;20416;-81
2022/09/04 16:28:04;;;;;;;4.15;2.75;;;;;;;;;;10113890;29;20946;-81
2022/09/04 16:33:19;;;;;;;3.00;2.80;;;;;;;;;;10093182;29;20504;-80
2022/09/04 16:38:28;;;;;;;2.80;2.50;;;;;;;;;;10081660;29;20433;-80
2022/09/04 16:43:33;;;;;;;3.07;2.80;;;;;;;;;;10092804;29;20512;-79
2022/09/04 16:48:43;;;;;;;3.17;2.90;;;;;;;;;;10116627;29;20433;-79
2022/09/04 16:53:50;;;;;;;5.25;2.85;;;;;;;;;;10115074;29;20424;-79
2022/09/04 16:58:55;;;;;;;3.50;2.80;;;;;;;;;;10117517;29;20759;-80
2022/09/04 17:04:18;;;;;;;3.57;2.77;;;;;;;;;;10124026;29;20417;-80
2022/09/04 17:09:26;;;;;;;3.00;2.80;;;;;;;;;;10123469;29;20491;-79
2022/09/04 17:14:35;;;;;;;2.97;2.77;;;;;;;;;;10121908;29;20425;-79
2022/09/04 17:19:39;;;;;;;4.00;3.00;;;;;;;;;;10123220;29;20456;-79
2022/09/04 17:24:47;;;;;;;3.17;2.87;;;;;;;;;;10121210;29;20405;-79
2022/09/04 17:29:54;;;;;;;3.20;2.90;;;;;;;;;;10113375;29;20419;-80
2022/09/04 17:35:08;;;;;;;5.10;4.40;;;;;;;;;;10098452;29;20895;-80
2022/09/04 17:40:17;;;;;;;4.00;3.70;;;;;;;;;;10110877;29;20413;-78
2022/09/04 17:45:26;;;;;;;4.60;2.78;;;;;;;;;;10122916;29;20781;-80
2022/09/04 17:50:30;;;;;;;3.17;2.88;;;;;;;;;;10123100;29;20516;-81
2022/09/04 17:55:36;;;;;;;6.63;3.08;;;;;;;;;;10123053;29;20416;-81
2022/09/04 18:00:52;;;;;;;5.28;3.10;;;;;;;;;;10121848;29;20898;-81
2022/09/04 18:06:02;;;;;;;5.82;2.88;;;;;;;;;;10120749;29;20432;-81
2022/09/04 18:11:13;;;;;;;3.53;2.60;;;;;;;;;;10108045;29;20995;-81
2022/09/04 18:16:42;;;;;;;3.22;2.60;;;;;;;;;;10118100;29;20747;-80
2022/09/04 18:21:48;;;;;;;3.50;2.70;;;;;;;;;;10117877;29;20509;-79
2022/09/04 18:26:56;;;;;;;3.90;2.88;;;;;;;;;;10116401;29;20906;-81
2022/09/04 18:32:02;;;;;;;4.20;2.87;;;;;;;;;;10121358;29;20424;-78
2022/09/04 18:37:14;;;;;;;3.33;2.95;;;;;;;;;;10109453;29;20429;-80
2022/09/04 18:42:30;;;;;;;5.40;2.90;;;;;;;;;;10120539;29;20859;-80
2022/09/04 18:47:41;;;;;;;3.45;3.10;;;;;;;;;;10119439;29;20429;-81
2022/09/04 18:52:59;;;;;;;3.63;3.13;;;;;;;;;;10117490;29;20761;-80
2022/09/04 18:58:27;;;;;;;4.50;3.10;;;;;;;;;;10104672;29;20413;-80
2022/09/04 19:03:39;;;;;;;3.10;2.80;;;;;;;;;;10106950;29;20405;-81
2022/09/04 19:08:49;;;;;;;3.00;2.70;;;;;;;;;;10114048;29;20441;-80
2022/09/04 19:13:56;;;;;;;3.67;2.80;;;;;;;;;;10112779;29;20533;-80
2022/09/04 19:19:02;;;;;;;4.57;3.43;;;;;;;;;;10110887;29;20795;-80
2022/09/04 19:24:21;;;;;;;5.75;3.33;;;;;;;;;;10100501;29;20423;-80
2022/09/04 19:29:27;;;;;;;3.30;3.00;;;;;;;;;;10113760;29;20444;-80
2022/09/04 19:34:37;;;;;;;3.83;3.20;;;;;;;;;;10119831;29;20409;-80
2022/09/04 19:39:43;;;;;;;4.13;3.72;;;;;;;;;;10119765;29;20496;-80
2022/09/04 19:44:50;;;;;;;3.27;2.97;;;;;;;;;;10118112;29;20509;-80
2022/09/04 19:49:58;;;;;;;3.77;3.17;;;;;;;;;;10115994;29;20439;-80
2022/09/04 19:55:11;;;;;;;5.18;3.35;;;;;;;;;;10115582;29;20502;-80
2022/09/04 20:00:21;;;;;;;5.23;3.20;;;;;;;;;;10115232;29;20421;-79
2022/09/04 20:05:26;;;;;;;4.32;3.58;;;;;;;;;;10116837;29;20415;-80
2022/09/04 20:10:36;;;;;;;3.47;3.15;;;;;;;;;;10114606;29;20412;-80
2022/09/04 20:15:46;;;;;;;4.80;3.60;;;;;;;;;;10113378;29;20914;-80
2022/09/04 20:20:55;;;;;;;4.25;3.33;;;;;;;;;;10102527;29;20497;-80
2022/09/04 20:26:04;;;;;;;4.60;3.22;;;;;;;;;;10111344;29;20878;-80
2022/09/04 20:31:31;;;;;;;6.22;3.78;;;;;;;;;;10102973;29;20912;-80
2022/09/04 20:36:37;;;;;;;4.65;4.20;;;;;;;;;;10110001;29;20425;-80
2022/09/04 20:41:49;;;;;;;5.28;4.03;;;;;;;;;;10115355;29;20419;-81
2022/09/04 20:46:56;;;;;;;6.55;4.63;;;;;;;;;;10104531;29;20438;-80
2022/09/04 20:52:00;;;;;;;6.55;5.88;;;;;;;;;;10114581;29;20809;-80
2022/09/04 20:57:17;;;;;;;6.68;5.55;;;;;;;;;;10114085;29;20507;-80
2022/09/04 21:02:34;;;;;;;7.13;5.28;;;;;;;;;;10112028;29;20417;-80
2022/09/04 21:07:42;;;;;;;6.10;5.50;;;;;;;;;;10110094;29;20456;-80
2022/09/04 21:12:52;;;;;;;6.47;5.30;;;;;;;;;;10101482;29;20508;-79
2022/09/04 21:18:20;;;;;;;5.57;5.07;;;;;;;;;;10110965;29;20797;-79
2022/09/04 21:23:46;;;;;;;6.95;5.72;;;;;;;;;;10110335;29;21117;-80
2022/09/04 21:29:22;;;;;;;6.60;5.90;;;;;;;;;;10110243;29;20516;-79
2022/09/04 21:34:43;;;;;;;8.60;6.93;;;;;;;;;;10109373;29;20493;-80
2022/09/04 21:40:07;;;;;;;12.43;9.70;;;;;;;;;;10116726;29;20511;-80
2022/09/04 21:45:23;;;;;;;12.15;10.95;;;;;;;;;;10116233;29;20508;-80
2022/09/04 21:50:55;;;;;;;12.17;10.10;;;;;;;;;;10122561;29;20429;-80
2022/09/04 21:56:12;;;;;;;12.07;10.93;;;;;;;;;;10123344;29;20420;-80
2022/09/04 22:01:46;;;;;;;12.43;10.60;;;;;;;;;;10110680;29;20419;-80
2022/09/04 22:06:55;;;;;;;11.93;10.43;;;;;;;;;;10121100;29;20433;-80
2022/09/04 22:12:05;;;;;;;10.33;9.23;;;;;;;;;;10120897;29;20420;-80
2022/09/04 22:17:23;;;;;;;10.25;9.25;;;;;;;;;;10119392;29;20505;-80
2022/09/04 22:23:01;;;;;;;11.18;10.02;;;;;;;;;;10109222;29;20483;-80
2022/09/04 22:28:34;;;;;;;12.10;10.85;;;;;;;;;;10117741;29;20449;-80
2022/09/04 22:34:21;;;;;;;13.20;11.80;;;;;;;;;;10122184;29;20405;-80
2022/09/04 22:39:48;;;;;;;14.95;12.50;;;;;;;;;;10103117;29;20680;-80
2022/09/04 22:45:18;;;;;;;12.95;11.63;;;;;;;;;;10097652;29;20502;-79
2022/09/04 22:50:42;;;;;;;13.57;12.27;;;;;;;;;;10087978;29;20519;-78
2022/09/04 22:55:54;;;;;;;13.70;12.30;;;;;;;;;;10121387;29;20878;-80
2022/09/04 23:01:19;;;;;;;13.50;12.10;;;;;;;;;;10121475;29;20736;-78
2022/09/04 23:06:52;;;;;;;13.48;12.02;;;;;;;;;;10119808;29;20516;-79
2022/09/04 23:12:07;;;;;;;13.75;12.45;;;;;;;;;;10118769;29;20500;-79
2022/09/04 23:17:27;;;;;;;12.32;11.13;;;;;;;;;;10118726;29;20417;-80
2022/09/04 23:23:03;;;;;;;12.25;11.13;;;;;;;;;;10107763;29;20512;-80
2022/09/04 23:28:14;;;;;;;13.40;11.73;;;;;;;;;;10106314;29;20440;-79
2022/09/04 23:33:46;;;;;;;13.10;11.80;;;;;;;;;;10119592;29;20500;-80
2022/09/04 23:39:20;;;;;;;13.50;12.07;;;;;;;;;;10097130;29;20896;-80
2022/09/04 23:44:56;;;;;;;13.70;12.40;;;;;;;;;;10087953;29;20837;-81
2022/09/04 23:50:01;;;;;;;13.73;12.30;;;;;;;;;;10118405;29;20517;-78
2022/09/04 23:55:18;;;;;;;15.27;12.57;;;;;;;;;;10117476;29;20692;-79
